Home   Weather   Denia   Past weeks
Flag for Spain

Past Weather in Denia, Alicante, Spain — Yesterday and Last 2 Weeks

Currently: 54 °F. Partly cloudy. (Weather station: Alicante / El Altet, Spain). See more current weather

Past Weather in Denia — Graph

°F

Denia Temperature Yesterday

Maximum temperature yesterday: 57 °F (at 1:30 pm)
Minimum temperature yesterday: 37 °F (at 6:00 am)
Average temperature yesterday: 48 °F

High & Low Weather Summary for the Past Weeks

 TemperatureHumidityPressure
High70 °F (Jan 9, 3:30 pm)100% (Jan 11, 4:00 am)30.57 "Hg (Jan 11, 4:00 am)
Low34 °F (Jan 17, 5:30 am)21% (Jan 7, 1:30 pm)29.95 "Hg (Jan 10, 5:00 am)
Average51 °F68%30.33 "Hg
* Reported Jan 6 8:00 pm — Jan 21 8:30 pm, Denia. Weather by CustomWeather, © 2022

Note: Actual official high and low records may vary slightly from our data, if they occured in-between our weather recording intervals... More about our weather records

Denia Weather History for the Previous 24 Hours

Scroll right to see more
 ConditionsComfort  
Time TempWeatherWind HumidityBarometerVisibility
8:30 pm
Fri, Jan 21
54 °FPartly cloudy.9 mph67%30.30 "HgN/A
8:00 pm55 °FPartly cloudy.12 mph67%30.30 "HgN/A
7:30 pm54 °FPassing clouds.7 mph72%30.30 "HgN/A
7:00 pm54 °FPassing clouds.8 mph72%30.27 "HgN/A
6:30 pm54 °FPassing clouds.6 mph67%30.27 "HgN/A
6:00 pm54 °FScattered clouds.6 mph72%30.27 "HgN/A
5:30 pm54 °FPassing clouds.7 mph72%30.27 "HgN/A
5:00 pm55 °FPassing clouds.9 mph67%30.24 "HgN/A
4:30 pm55 °FPassing clouds.7 mph67%30.24 "HgN/A
4:00 pm55 °FPassing clouds.9 mph67%30.24 "HgN/A
3:30 pm57 °FPassing clouds.7 mph55%30.24 "HgN/A
3:00 pm57 °FPassing clouds.7 mph59%30.24 "HgN/A
2:30 pm57 °FPassing clouds.6 mph55%30.24 "HgN/A
2:00 pm57 °FPassing clouds.6 mph55%30.24 "HgN/A
1:30 pm57 °FPassing clouds.5 mph55%30.24 "HgN/A
1:00 pm55 °FPassing clouds.6 mph59%30.27 "HgN/A
12:30 pm55 °FPassing clouds.2 mph59%30.27 "HgN/A
12:00 pm55 °FScattered clouds.2 mph59%30.27 "HgN/A
11:30 am54 °FScattered clouds.1 mph58%30.27 "HgN/A
11:00 am50 °FScattered clouds.2 mph67%30.27 "HgN/A
10:30 am48 °FPassing clouds.3 mph71%30.27 "HgN/A
10:00 am48 °FPassing clouds.2 mph66%30.24 "HgN/A
9:30 am45 °FPassing clouds.2 mph76%30.24 "HgN/A
9:00 am43 °FPassing clouds.6 mph76%30.24 "HgN/A
8:30 am43 °FPassing clouds.7 mph76%30.24 "HgN/A
8:00 am41 °FPassing clouds.7 mph81%30.24 "HgN/A
7:30 am43 °FPassing clouds.8 mph76%30.24 "HgN/A
7:00 am41 °FClear.6 mph81%30.21 "Hg10 mi
6:30 am41 °FClear.6 mph81%30.21 "Hg10 mi
6:00 am43 °FPassing clouds.3 mph76%30.21 "HgN/A
5:30 am45 °FPassing clouds.3 mph76%30.21 "HgN/A
5:00 am46 °FClear.6 mph71%30.21 "Hg10 mi
4:30 am45 °FClear.7 mph76%30.24 "Hg10 mi
4:00 am45 °FPassing clouds.6 mph76%30.24 "HgN/A
3:30 am43 °FClear.2 mph81%30.24 "Hg10 mi
3:00 am43 °FClear.6 mph81%30.24 "Hg10 mi
2:30 am43 °FClear.5 mph81%30.24 "Hg10 mi
2:00 am43 °FClear.6 mph81%30.24 "Hg10 mi
1:30 am45 °FClear.7 mph81%30.27 "Hg10 mi
12:30 am46 °FPassing clouds.7 mph82%30.27 "HgN/A
12:00 am46 °FPassing clouds.6 mph82%30.27 "HgN/A
11:30 pm
Thu, Jan 20
46 °FPassing clouds.6 mph82%30.30 "HgN/A
11:00 pm50 °FPassing clouds.7 mph76%30.27 "HgN/A
10:30 pm50 °FPassing clouds.6 mph76%30.27 "HgN/A
10:00 pm50 °FPassing clouds.3 mph82%30.27 "HgN/A
9:30 pm52 °FPassing clouds.6 mph77%30.27 "HgN/A
9:00 pm52 °FPassing clouds.6 mph77%30.27 "HgN/A
Weather by CustomWeather, © 2022

See weather overview